DAJAP LKTB-LGSR
Flight info
| Callsign | DAJAP |
|---|---|
| Flight time | 2h 1m |
| Altitude | 39000 |
| Route | ODNEM DCT XOMBA DCT TONDO DCT RAXAD DCT RUGAS UN128 FSK UG18 LUPIS/N0468F400 UG33 NEVRA/N0470F390 UT514 PEXAN |
| Aircraft | CL60/M-SBDE1E2E3FGHIJ1J4J5J7M3RWXYZ/LB1V1D1 |
Departure
| Time | 2026-04-25 18:25 |
|---|---|
| Airport | Brno-Tuřany Airport (LKTB) |
Arrival
| Time | 2026-04-25 20:27 |
|---|---|
| Airport | Santorini International Airport (LGSR) |
| Time | Latitude | Longitude | Altitude | Speed | Heading |
|---|---|---|---|---|---|
| 2026-04-25 18:01 | 49.15418 | 16.68759 | 793 ft | 0 kts | 186° |
| 2026-04-25 18:19 | 49.15413 | 16.68758 | 793 ft | 3 kts | 186° |
| 2026-04-25 18:19 | 49.15374 | 16.68802 | 792 ft | 12 kts | 102° |
| 2026-04-25 18:20 | 49.15359 | 16.68969 | 792 ft | 18 kts | 98° |
| 2026-04-25 18:20 | 49.15345 | 16.69121 | 791 ft | 11 kts | 97° |
| 2026-04-25 18:20 | 49.15332 | 16.69268 | 790 ft | 16 kts | 97° |
| 2026-04-25 18:20 | 49.15316 | 16.69453 | 786 ft | 18 kts | 98° |
| 2026-04-25 18:21 | 49.15298 | 16.69676 | 783 ft | 23 kts | 97° |
| 2026-04-25 18:21 | 49.15274 | 16.69947 | 779 ft | 27 kts | 98° |
| 2026-04-25 18:21 | 49.15256 | 16.70147 | 778 ft | 19 kts | 96° |
| 2026-04-25 18:21 | 49.15237 | 16.70371 | 777 ft | 22 kts | 97° |
| 2026-04-25 18:22 | 49.15219 | 16.70574 | 777 ft | 14 kts | 98° |
| 2026-04-25 18:22 | 49.15210 | 16.70686 | 778 ft | 16 kts | 98° |
| 2026-04-25 18:22 | 49.15191 | 16.70901 | 780 ft | 16 kts | 98° |
| 2026-04-25 18:22 | 49.15180 | 16.71038 | 781 ft | 3 kts | 97° |
| 2026-04-25 18:23 | 49.15179 | 16.71039 | 780 ft | 0 kts | 97° |
| 2026-04-25 18:23 | 49.15178 | 16.71061 | 781 ft | 7 kts | 97° |
| 2026-04-25 18:23 | 49.15165 | 16.71180 | 781 ft | 12 kts | 114° |
| 2026-04-25 18:23 | 49.15120 | 16.71204 | 781 ft | 7 kts | 191° |
| 2026-04-25 18:24 | 49.15064 | 16.71195 | 781 ft | 7 kts | 189° |
| 2026-04-25 18:24 | 49.14997 | 16.71172 | 781 ft | 11 kts | 209° |
| 2026-04-25 18:24 | 49.14982 | 16.71117 | 781 ft | 0 kts | 276° |
| 2026-04-25 18:24 | 49.14983 | 16.71115 | 781 ft | 0 kts | 276° |
| 2026-04-25 18:25 | 49.15014 | 16.70718 | 778 ft | 88 kts | 278° |
| 2026-04-25 18:25 | 49.15130 | 16.69330 | 920 ft | 161 kts | 278° |
| 2026-04-25 18:25 | 49.15249 | 16.67578 | 1758 ft | 179 kts | 277° |
| 2026-04-25 18:25 | 49.15370 | 16.65716 | 2883 ft | 186 kts | 281° |
| 2026-04-25 18:26 | 49.15548 | 16.63754 | 3975 ft | 195 kts | 281° |
| 2026-04-25 18:26 | 49.15649 | 16.61562 | 4664 ft | 230 kts | 266° |
| 2026-04-25 18:26 | 49.14934 | 16.59185 | 4937 ft | 266 kts | 233° |
| 2026-04-25 18:26 | 49.13350 | 16.57706 | 5012 ft | 278 kts | 199° |
| 2026-04-25 18:27 | 49.11407 | 16.57803 | 5022 ft | 288 kts | 165° |
| 2026-04-25 18:27 | 49.09707 | 16.59607 | 5250 ft | 320 kts | 131° |
| 2026-04-25 18:27 | 49.08379 | 16.62280 | 6727 ft | 320 kts | 129° |
| 2026-04-25 18:27 | 49.07064 | 16.64918 | 8375 ft | 315 kts | 129° |
| 2026-04-25 18:28 | 49.05737 | 16.67495 | 9871 ft | 314 kts | 130° |
| 2026-04-25 18:28 | 49.04498 | 16.70188 | 11162 ft | 321 kts | 122° |
| 2026-04-25 18:28 | 49.03353 | 16.73108 | 12441 ft | 328 kts | 122° |
| 2026-04-25 18:29 | 49.00986 | 16.79123 | 14809 ft | 339 kts | 122° |
| 2026-04-25 18:29 | 48.99762 | 16.82202 | 15899 ft | 346 kts | 122° |
| 2026-04-25 18:30 | 48.95894 | 16.91766 | 18807 ft | 366 kts | 123° |
| 2026-04-25 18:30 | 48.94519 | 16.95065 | 19722 ft | 373 kts | 124° |
| 2026-04-25 18:30 | 48.93109 | 16.98394 | 20577 ft | 379 kts | 124° |
| 2026-04-25 18:30 | 48.91674 | 17.01777 | 21438 ft | 384 kts | 124° |
| 2026-04-25 18:31 | 48.90208 | 17.05225 | 22250 ft | 390 kts | 124° |
| 2026-04-25 18:31 | 48.88706 | 17.08730 | 23017 ft | 396 kts | 125° |
| 2026-04-25 18:31 | 48.87199 | 17.12254 | 23769 ft | 402 kts | 125° |
| 2026-04-25 18:31 | 48.85566 | 17.15690 | 24584 ft | 403 kts | 136° |
| 2026-04-25 18:32 | 48.83425 | 17.18356 | 25365 ft | 398 kts | 154° |
| 2026-04-25 18:32 | 48.81004 | 17.20395 | 26086 ft | 401 kts | 156° |
| 2026-04-25 18:32 | 48.78553 | 17.22420 | 26834 ft | 405 kts | 156° |
| 2026-04-25 18:32 | 48.76078 | 17.24471 | 27532 ft | 408 kts | 156° |
| 2026-04-25 18:33 | 48.73590 | 17.26532 | 28201 ft | 411 kts | 156° |
| 2026-04-25 18:33 | 48.71072 | 17.28617 | 28875 ft | 414 kts | 156° |
| 2026-04-25 18:33 | 48.68489 | 17.30754 | 29449 ft | 419 kts | 156° |
| 2026-04-25 18:33 | 48.65897 | 17.32897 | 30039 ft | 422 kts | 156° |
| 2026-04-25 18:34 | 48.63316 | 17.35030 | 30598 ft | 425 kts | 156° |
| 2026-04-25 18:34 | 48.60667 | 17.37217 | 31110 ft | 429 kts | 156° |
| 2026-04-25 18:34 | 48.58017 | 17.39403 | 31610 ft | 432 kts | 156° |
| 2026-04-25 18:34 | 48.55365 | 17.41588 | 32060 ft | 435 kts | 156° |
| 2026-04-25 18:35 | 48.52704 | 17.43777 | 32443 ft | 440 kts | 156° |
| 2026-04-25 18:35 | 48.49971 | 17.46025 | 32848 ft | 443 kts | 156° |
| 2026-04-25 18:35 | 48.47268 | 17.48245 | 33263 ft | 446 kts | 156° |
| 2026-04-25 18:35 | 48.44524 | 17.50497 | 33676 ft | 448 kts | 156° |
| 2026-04-25 18:36 | 48.41802 | 17.52727 | 34059 ft | 450 kts | 156° |
| 2026-04-25 18:36 | 48.39014 | 17.55010 | 34550 ft | 449 kts | 156° |
| 2026-04-25 18:36 | 48.36297 | 17.57234 | 34996 ft | 447 kts | 156° |
| 2026-04-25 18:36 | 48.33543 | 17.59484 | 35438 ft | 446 kts | 156° |
| 2026-04-25 18:37 | 48.30835 | 17.61695 | 35844 ft | 445 kts | 156° |
| 2026-04-25 18:37 | 48.28115 | 17.63911 | 36241 ft | 443 kts | 156° |
| 2026-04-25 18:37 | 48.25404 | 17.66119 | 36660 ft | 442 kts | 156° |
| 2026-04-25 18:37 | 48.22684 | 17.68329 | 37069 ft | 441 kts | 157° |
| 2026-04-25 18:38 | 48.20085 | 17.70439 | 37455 ft | 441 kts | 156° |
| 2026-04-25 18:38 | 48.17355 | 17.72653 | 37827 ft | 441 kts | 157° |
| 2026-04-25 18:38 | 48.14648 | 17.74846 | 38210 ft | 441 kts | 156° |
| 2026-04-25 18:38 | 48.11961 | 17.77019 | 38554 ft | 440 kts | 156° |
| 2026-04-25 18:39 | 48.09272 | 17.79192 | 38885 ft | 440 kts | 156° |
| 2026-04-25 18:39 | 48.06541 | 17.81393 | 38921 ft | 446 kts | 156° |
| 2026-04-25 18:39 | 48.01025 | 17.85830 | 38931 ft | 458 kts | 156° |
| 2026-04-25 18:40 | 47.95376 | 17.90365 | 38931 ft | 469 kts | 156° |
| 2026-04-25 18:40 | 47.89560 | 17.95023 | 38927 ft | 478 kts | 156° |
| 2026-04-25 18:41 | 47.83630 | 17.99762 | 38934 ft | 486 kts | 156° |
| 2026-04-25 18:41 | 47.77654 | 18.04525 | 38935 ft | 493 kts | 156° |
| 2026-04-25 18:42 | 47.72592 | 18.08523 | 38953 ft | 496 kts | 156° |
| 2026-04-25 18:42 | 47.65445 | 18.14115 | 39089 ft | 497 kts | 156° |
| 2026-04-25 18:43 | 47.62381 | 18.16507 | 38958 ft | 499 kts | 156° |
| 2026-04-25 18:43 | 47.59311 | 18.18901 | 38942 ft | 496 kts | 156° |
| 2026-04-25 18:43 | 47.53229 | 18.23635 | 38951 ft | 494 kts | 156° |
| 2026-04-25 18:44 | 47.47149 | 18.28354 | 38963 ft | 493 kts | 157° |
| 2026-04-25 18:44 | 47.41089 | 18.33045 | 38958 ft | 493 kts | 156° |
| 2026-04-25 18:45 | 47.34982 | 18.37760 | 38968 ft | 494 kts | 156° |
| 2026-04-25 18:45 | 47.28887 | 18.42452 | 38961 ft | 494 kts | 156° |
| 2026-04-25 18:46 | 47.22768 | 18.47152 | 38961 ft | 494 kts | 156° |
| 2026-04-25 18:46 | 47.16678 | 18.51817 | 38944 ft | 493 kts | 157° |
| 2026-04-25 18:47 | 47.10569 | 18.56484 | 38954 ft | 493 kts | 156° |
| 2026-04-25 18:47 | 47.04465 | 18.61135 | 38964 ft | 494 kts | 156° |
| 2026-04-25 18:48 | 46.98381 | 18.65759 | 38969 ft | 494 kts | 158° |
| 2026-04-25 18:48 | 46.92276 | 18.70388 | 38970 ft | 493 kts | 157° |
| 2026-04-25 18:49 | 46.86218 | 18.74971 | 38971 ft | 492 kts | 158° |
| 2026-04-25 18:49 | 46.80117 | 18.79572 | 38970 ft | 493 kts | 157° |
| 2026-04-25 18:50 | 46.73961 | 18.84203 | 38971 ft | 494 kts | 157° |
| 2026-04-25 18:50 | 46.67876 | 18.88769 | 38971 ft | 494 kts | 157° |
| 2026-04-25 18:51 | 46.62761 | 18.92598 | 38975 ft | 494 kts | 157° |
| 2026-04-25 18:51 | 46.55612 | 18.97936 | 38968 ft | 494 kts | 157° |
| 2026-04-25 18:52 | 46.49488 | 19.02496 | 38968 ft | 494 kts | 157° |
| 2026-04-25 18:52 | 46.43390 | 19.07025 | 38969 ft | 494 kts | 157° |
| 2026-04-25 18:53 | 46.37263 | 19.11564 | 38969 ft | 494 kts | 157° |
| 2026-04-25 18:53 | 46.31159 | 19.16075 | 38969 ft | 494 kts | 157° |
| 2026-04-25 18:54 | 46.21936 | 19.22868 | 38970 ft | 494 kts | 157° |
| 2026-04-25 18:55 | 46.15831 | 19.27352 | 38971 ft | 494 kts | 157° |
| 2026-04-25 18:55 | 46.09680 | 19.31857 | 38978 ft | 495 kts | 157° |
| 2026-04-25 18:56 | 46.03548 | 19.36420 | 38986 ft | 496 kts | 154° |
| 2026-04-25 18:56 | 45.97546 | 19.41404 | 38986 ft | 498 kts | 153° |
| 2026-04-25 18:57 | 45.91576 | 19.46353 | 38980 ft | 498 kts | 153° |
| 2026-04-25 18:57 | 45.85560 | 19.51328 | 38983 ft | 497 kts | 153° |
| 2026-04-25 18:58 | 45.79539 | 19.56292 | 38979 ft | 497 kts | 153° |
| 2026-04-25 18:58 | 45.70525 | 19.63699 | 38988 ft | 497 kts | 153° |
| 2026-04-25 18:59 | 45.58520 | 19.73518 | 38991 ft | 497 kts | 154° |
| 2026-04-25 19:00 | 45.49530 | 19.80837 | 38991 ft | 497 kts | 154° |
| 2026-04-25 19:01 | 45.40520 | 19.88146 | 38991 ft | 498 kts | 153° |
| 2026-04-25 19:01 | 45.34489 | 19.93023 | 38990 ft | 498 kts | 153° |
| 2026-04-25 19:02 | 45.25471 | 20.00293 | 38991 ft | 498 kts | 153° |
| 2026-04-25 19:03 | 45.17408 | 20.06771 | 38992 ft | 498 kts | 153° |
| 2026-04-25 19:03 | 45.10372 | 20.12405 | 38995 ft | 498 kts | 153° |
| 2026-04-25 19:04 | 45.01324 | 20.19628 | 38994 ft | 499 kts | 153° |
| 2026-04-25 19:05 | 44.89187 | 20.29276 | 38997 ft | 499 kts | 153° |
| 2026-04-25 19:06 | 44.83164 | 20.34046 | 38992 ft | 498 kts | 153° |
| 2026-04-25 19:06 | 44.74091 | 20.41211 | 38998 ft | 498 kts | 153° |
| 2026-04-25 19:07 | 44.65019 | 20.48348 | 39008 ft | 497 kts | 153° |
| 2026-04-25 19:08 | 44.55924 | 20.55477 | 39003 ft | 497 kts | 153° |
| 2026-04-25 19:09 | 44.44852 | 20.64122 | 39017 ft | 497 kts | 152° |
| 2026-04-25 19:10 | 44.34786 | 20.71949 | 39024 ft | 497 kts | 153° |
| 2026-04-25 19:10 | 44.28760 | 20.76619 | 39011 ft | 496 kts | 153° |
| 2026-04-25 19:11 | 44.22730 | 20.81282 | 39018 ft | 496 kts | 153° |
| 2026-04-25 19:11 | 44.16658 | 20.85966 | 39021 ft | 495 kts | 153° |
| 2026-04-25 19:12 | 44.10639 | 20.90599 | 39028 ft | 495 kts | 152° |
| 2026-04-25 19:12 | 44.04601 | 20.95235 | 39033 ft | 496 kts | 153° |
| 2026-04-25 19:13 | 43.98592 | 20.99838 | 39032 ft | 495 kts | 152° |
| 2026-04-25 19:13 | 43.92539 | 21.04464 | 39038 ft | 494 kts | 152° |
| 2026-04-25 19:14 | 43.86518 | 21.09055 | 39036 ft | 493 kts | 152° |
| 2026-04-25 19:14 | 43.80580 | 21.13573 | 39037 ft | 493 kts | 152° |
| 2026-04-25 19:15 | 43.74560 | 21.18142 | 39035 ft | 494 kts | 152° |
| 2026-04-25 19:15 | 43.68529 | 21.22709 | 39042 ft | 495 kts | 152° |
| 2026-04-25 19:16 | 43.62456 | 21.27297 | 39034 ft | 494 kts | 152° |
| 2026-04-25 19:16 | 43.56416 | 21.31849 | 39043 ft | 493 kts | 152° |
| 2026-04-25 19:17 | 43.50428 | 21.36353 | 39041 ft | 493 kts | 152° |
| 2026-04-25 19:17 | 43.44363 | 21.40903 | 39042 ft | 492 kts | 152° |
| 2026-04-25 19:18 | 43.38341 | 21.45413 | 39049 ft | 492 kts | 151° |
| 2026-04-25 19:18 | 43.32325 | 21.49912 | 39045 ft | 492 kts | 151° |
| 2026-04-25 19:19 | 43.26331 | 21.54384 | 39041 ft | 493 kts | 151° |
| 2026-04-25 19:19 | 43.20295 | 21.58875 | 39051 ft | 493 kts | 151° |
| 2026-04-25 19:20 | 43.14225 | 21.63381 | 39056 ft | 492 kts | 151° |
| 2026-04-25 19:20 | 43.08212 | 21.67834 | 39062 ft | 491 kts | 152° |
| 2026-04-25 19:21 | 43.02149 | 21.72313 | 39061 ft | 491 kts | 152° |
| 2026-04-25 19:21 | 42.93158 | 21.78936 | 39066 ft | 491 kts | 152° |
| 2026-04-25 19:22 | 42.87123 | 21.83369 | 39057 ft | 491 kts | 151° |
| 2026-04-25 19:23 | 42.78097 | 21.89980 | 39051 ft | 490 kts | 151° |
| 2026-04-25 19:23 | 42.69066 | 21.96573 | 39058 ft | 490 kts | 151° |
| 2026-04-25 19:24 | 42.63051 | 22.00952 | 39061 ft | 490 kts | 151° |
| 2026-04-25 19:25 | 42.51049 | 22.09660 | 39064 ft | 489 kts | 151° |
| 2026-04-25 19:25 | 42.45029 | 22.14013 | 39066 ft | 489 kts | 150° |
| 2026-04-25 19:26 | 42.39057 | 22.18323 | 39065 ft | 488 kts | 150° |
| 2026-04-25 19:26 | 42.33046 | 22.22651 | 39066 ft | 488 kts | 150° |
| 2026-04-25 19:27 | 42.27937 | 22.25956 | 39063 ft | 489 kts | 156° |
| 2026-04-25 19:27 | 42.20547 | 22.30137 | 39057 ft | 488 kts | 156° |
| 2026-04-25 19:28 | 42.14293 | 22.33677 | 39055 ft | 488 kts | 156° |
| 2026-04-25 19:28 | 42.08006 | 22.37230 | 39057 ft | 488 kts | 156° |
| 2026-04-25 19:29 | 42.01700 | 22.40788 | 39060 ft | 488 kts | 155° |
| 2026-04-25 19:29 | 41.95449 | 22.44309 | 39067 ft | 487 kts | 155° |
| 2026-04-25 19:30 | 41.89192 | 22.47826 | 39073 ft | 487 kts | 155° |
| 2026-04-25 19:30 | 41.82904 | 22.51354 | 39076 ft | 487 kts | 155° |
| 2026-04-25 19:31 | 41.76634 | 22.54865 | 39072 ft | 486 kts | 155° |
| 2026-04-25 19:31 | 41.70349 | 22.58377 | 39066 ft | 486 kts | 155° |
| 2026-04-25 19:32 | 41.64107 | 22.61859 | 39068 ft | 486 kts | 155° |
| 2026-04-25 19:32 | 41.58881 | 22.64768 | 39050 ft | 486 kts | 155° |
| 2026-04-25 19:33 | 41.51639 | 22.68791 | 39043 ft | 486 kts | 155° |
| 2026-04-25 19:33 | 41.45356 | 22.72274 | 39044 ft | 485 kts | 155° |
| 2026-04-25 19:34 | 41.39094 | 22.75738 | 39043 ft | 485 kts | 155° |
| 2026-04-25 19:34 | 41.32906 | 22.79312 | 39042 ft | 482 kts | 149° |
| 2026-04-25 19:35 | 41.27247 | 22.84080 | 39040 ft | 480 kts | 144° |
| 2026-04-25 19:35 | 41.21654 | 22.88940 | 39036 ft | 480 kts | 144° |
| 2026-04-25 19:36 | 41.15897 | 22.93447 | 39040 ft | 483 kts | 153° |
| 2026-04-25 19:36 | 41.09738 | 22.96962 | 39042 ft | 482 kts | 154° |
| 2026-04-25 19:37 | 41.03559 | 23.00473 | 39042 ft | 481 kts | 154° |
| 2026-04-25 19:37 | 40.97381 | 23.03977 | 39048 ft | 480 kts | 154° |
| 2026-04-25 19:38 | 40.91213 | 23.07468 | 39030 ft | 481 kts | 154° |
| 2026-04-25 19:38 | 40.85046 | 23.10952 | 39043 ft | 481 kts | 154° |
| 2026-04-25 19:39 | 40.78851 | 23.14446 | 39022 ft | 481 kts | 154° |
| 2026-04-25 19:39 | 40.72684 | 23.17916 | 39035 ft | 481 kts | 154° |
| 2026-04-25 19:40 | 40.66534 | 23.21369 | 39035 ft | 480 kts | 154° |
| 2026-04-25 19:40 | 40.60355 | 23.24833 | 39040 ft | 480 kts | 154° |
| 2026-04-25 19:41 | 40.54206 | 23.28272 | 39042 ft | 480 kts | 154° |
| 2026-04-25 19:41 | 40.49052 | 23.31150 | 39042 ft | 480 kts | 154° |
| 2026-04-25 19:42 | 40.41872 | 23.35151 | 39030 ft | 480 kts | 154° |
| 2026-04-25 19:42 | 40.35714 | 23.38575 | 39020 ft | 480 kts | 154° |
| 2026-04-25 19:43 | 40.29558 | 23.41990 | 39015 ft | 479 kts | 153° |
| 2026-04-25 19:43 | 40.23422 | 23.45388 | 39006 ft | 478 kts | 153° |
| 2026-04-25 19:44 | 40.17262 | 23.48794 | 39015 ft | 480 kts | 154° |
| 2026-04-25 19:44 | 40.11111 | 23.52186 | 39012 ft | 480 kts | 153° |
| 2026-04-25 19:45 | 40.04984 | 23.55558 | 39015 ft | 479 kts | 153° |
| 2026-04-25 19:45 | 39.98832 | 23.58938 | 39018 ft | 479 kts | 153° |
| 2026-04-25 19:46 | 39.92688 | 23.62306 | 39013 ft | 478 kts | 153° |
| 2026-04-25 19:46 | 39.86568 | 23.65654 | 39011 ft | 478 kts | 154° |
| 2026-04-25 19:47 | 39.80418 | 23.69014 | 39011 ft | 478 kts | 154° |
| 2026-04-25 19:47 | 39.74256 | 23.72373 | 39010 ft | 479 kts | 154° |
| 2026-04-25 19:48 | 39.68099 | 23.75722 | 39014 ft | 479 kts | 154° |
| 2026-04-25 19:48 | 39.61948 | 23.79061 | 39013 ft | 478 kts | 154° |
| 2026-04-25 19:49 | 39.56828 | 23.81835 | 39005 ft | 478 kts | 154° |
| 2026-04-25 19:49 | 39.49662 | 23.85712 | 39012 ft | 478 kts | 154° |
| 2026-04-25 19:50 | 39.40414 | 23.90701 | 39016 ft | 478 kts | 154° |
| 2026-04-25 19:51 | 39.34277 | 23.94004 | 39009 ft | 478 kts | 154° |
| 2026-04-25 19:51 | 39.28124 | 23.97308 | 39010 ft | 478 kts | 154° |
| 2026-04-25 19:52 | 39.22002 | 24.00591 | 39011 ft | 477 kts | 154° |
| 2026-04-25 19:52 | 39.15839 | 24.03888 | 39013 ft | 478 kts | 154° |
| 2026-04-25 19:53 | 39.09691 | 24.07171 | 39009 ft | 478 kts | 154° |
| 2026-04-25 19:53 | 39.03522 | 24.10460 | 39007 ft | 478 kts | 154° |
| 2026-04-25 19:54 | 38.97386 | 24.13725 | 39005 ft | 477 kts | 154° |
| 2026-04-25 19:54 | 38.91288 | 24.16962 | 39021 ft | 477 kts | 155° |
| 2026-04-25 19:55 | 38.85095 | 24.20245 | 39002 ft | 477 kts | 154° |
| 2026-04-25 19:55 | 38.78988 | 24.23476 | 39008 ft | 476 kts | 155° |
| 2026-04-25 19:56 | 38.72839 | 24.26723 | 39020 ft | 476 kts | 155° |
| 2026-04-25 19:56 | 38.66696 | 24.29960 | 39024 ft | 476 kts | 155° |
| 2026-04-25 19:57 | 38.60582 | 24.33177 | 39003 ft | 476 kts | 155° |
| 2026-04-25 19:57 | 38.54421 | 24.36411 | 39018 ft | 475 kts | 155° |
| 2026-04-25 19:58 | 38.48288 | 24.39626 | 39007 ft | 475 kts | 155° |
| 2026-04-25 19:58 | 38.42176 | 24.42823 | 39009 ft | 475 kts | 155° |
| 2026-04-25 19:59 | 38.36060 | 24.46016 | 39000 ft | 475 kts | 155° |
| 2026-04-25 19:59 | 38.29967 | 24.49192 | 38987 ft | 476 kts | 155° |
| 2026-04-25 20:00 | 38.23797 | 24.52402 | 39007 ft | 475 kts | 155° |
| 2026-04-25 20:00 | 38.17697 | 24.55567 | 38995 ft | 474 kts | 156° |
| 2026-04-25 20:01 | 38.08321 | 24.59682 | 38983 ft | 473 kts | 158° |
| 2026-04-25 20:01 | 38.02254 | 24.62891 | 38996 ft | 473 kts | 155° |
| 2026-04-25 20:02 | 37.96204 | 24.66142 | 38980 ft | 473 kts | 156° |
| 2026-04-25 20:02 | 37.90127 | 24.69400 | 38984 ft | 473 kts | 155° |
| 2026-04-25 20:03 | 37.84068 | 24.72640 | 38666 ft | 467 kts | 155° |
| 2026-04-25 20:03 | 37.81091 | 24.74228 | 38080 ft | 462 kts | 155° |
| 2026-04-25 20:03 | 37.78149 | 24.75796 | 37509 ft | 457 kts | 155° |
| 2026-04-25 20:04 | 37.75205 | 24.77364 | 36925 ft | 453 kts | 155° |
| 2026-04-25 20:04 | 37.72317 | 24.78901 | 36358 ft | 449 kts | 155° |
| 2026-04-25 20:04 | 37.69455 | 24.80423 | 35820 ft | 447 kts | 155° |
| 2026-04-25 20:04 | 37.66591 | 24.81945 | 35175 ft | 450 kts | 154° |
| 2026-04-25 20:05 | 37.63689 | 24.83486 | 34563 ft | 449 kts | 154° |
| 2026-04-25 20:05 | 37.60832 | 24.85001 | 33950 ft | 447 kts | 154° |
| 2026-04-25 20:05 | 37.57949 | 24.86528 | 33389 ft | 443 kts | 154° |
| 2026-04-25 20:05 | 37.55134 | 24.88017 | 32794 ft | 439 kts | 154° |
| 2026-04-25 20:06 | 37.52330 | 24.89499 | 32231 ft | 434 kts | 154° |
| 2026-04-25 20:06 | 37.49543 | 24.90972 | 31645 ft | 430 kts | 154° |
| 2026-04-25 20:06 | 37.46781 | 24.92430 | 31079 ft | 426 kts | 154° |
| 2026-04-25 20:06 | 37.44045 | 24.93873 | 30507 ft | 421 kts | 154° |
| 2026-04-25 20:07 | 37.41364 | 24.95285 | 29938 ft | 415 kts | 153° |
| 2026-04-25 20:07 | 37.38740 | 24.96667 | 29413 ft | 410 kts | 153° |
| 2026-04-25 20:07 | 37.36108 | 24.98052 | 28864 ft | 405 kts | 153° |
| 2026-04-25 20:07 | 37.33542 | 24.99401 | 28332 ft | 400 kts | 153° |
| 2026-04-25 20:08 | 37.30985 | 25.00744 | 27806 ft | 395 kts | 153° |
| 2026-04-25 20:08 | 37.28463 | 25.02069 | 27281 ft | 390 kts | 153° |
| 2026-04-25 20:08 | 37.25964 | 25.03380 | 26765 ft | 386 kts | 153° |
| 2026-04-25 20:08 | 37.23520 | 25.04661 | 26255 ft | 381 kts | 153° |
| 2026-04-25 20:09 | 37.21061 | 25.05950 | 25752 ft | 376 kts | 153° |
| 2026-04-25 20:09 | 37.18676 | 25.07199 | 25261 ft | 372 kts | 153° |
| 2026-04-25 20:09 | 37.16280 | 25.08452 | 24761 ft | 368 kts | 153° |
| 2026-04-25 20:09 | 37.13934 | 25.09679 | 24284 ft | 364 kts | 152° |
| 2026-04-25 20:10 | 37.11623 | 25.10887 | 23797 ft | 360 kts | 152° |
| 2026-04-25 20:10 | 37.09336 | 25.12081 | 23327 ft | 356 kts | 152° |
| 2026-04-25 20:10 | 37.07046 | 25.13275 | 22849 ft | 352 kts | 152° |
| 2026-04-25 20:10 | 37.04785 | 25.14454 | 22382 ft | 347 kts | 152° |
| 2026-04-25 20:11 | 37.02604 | 25.15591 | 21938 ft | 342 kts | 152° |
| 2026-04-25 20:11 | 37.00421 | 25.16728 | 21481 ft | 337 kts | 152° |
| 2026-04-25 20:11 | 36.98271 | 25.17846 | 21037 ft | 333 kts | 152° |
| 2026-04-25 20:11 | 36.96132 | 25.18959 | 20600 ft | 328 kts | 152° |
| 2026-04-25 20:12 | 36.94015 | 25.20061 | 20161 ft | 328 kts | 152° |
| 2026-04-25 20:12 | 36.91902 | 25.21161 | 19722 ft | 328 kts | 152° |
| 2026-04-25 20:12 | 36.89804 | 25.22251 | 19289 ft | 327 kts | 152° |
| 2026-04-25 20:12 | 36.88399 | 25.22981 | 18999 ft | 325 kts | 152° |
| 2026-04-25 20:13 | 36.85610 | 25.24428 | 18419 ft | 323 kts | 152° |
| 2026-04-25 20:13 | 36.83562 | 25.25490 | 18002 ft | 321 kts | 152° |
| 2026-04-25 20:13 | 36.81505 | 25.26556 | 17572 ft | 319 kts | 152° |
| 2026-04-25 20:13 | 36.79449 | 25.27621 | 17145 ft | 316 kts | 152° |
| 2026-04-25 20:14 | 36.77424 | 25.28668 | 16727 ft | 313 kts | 152° |
| 2026-04-25 20:14 | 36.75415 | 25.29707 | 16313 ft | 311 kts | 152° |
| 2026-04-25 20:14 | 36.73427 | 25.30735 | 15900 ft | 308 kts | 152° |
| 2026-04-25 20:14 | 36.71449 | 25.31758 | 15490 ft | 305 kts | 152° |
| 2026-04-25 20:15 | 36.69488 | 25.32771 | 15087 ft | 303 kts | 152° |
| 2026-04-25 20:15 | 36.67542 | 25.33775 | 14676 ft | 300 kts | 153° |
| 2026-04-25 20:15 | 36.65624 | 25.34764 | 14280 ft | 297 kts | 152° |
| 2026-04-25 20:15 | 36.63739 | 25.35735 | 13789 ft | 293 kts | 152° |
| 2026-04-25 20:16 | 36.61848 | 25.36711 | 13083 ft | 298 kts | 153° |
| 2026-04-25 20:16 | 36.59893 | 25.37723 | 11839 ft | 312 kts | 153° |
| 2026-04-25 20:16 | 36.57885 | 25.38760 | 10571 ft | 319 kts | 153° |
| 2026-04-25 20:16 | 36.55854 | 25.39806 | 9317 ft | 323 kts | 153° |
| 2026-04-25 20:17 | 36.53769 | 25.40877 | 8222 ft | 318 kts | 153° |
| 2026-04-25 20:17 | 36.51772 | 25.41898 | 7594 ft | 302 kts | 153° |
| 2026-04-25 20:17 | 36.49893 | 25.42858 | 7139 ft | 285 kts | 152° |
| 2026-04-25 20:17 | 36.48095 | 25.43776 | 6739 ft | 270 kts | 152° |
| 2026-04-25 20:18 | 36.46404 | 25.44640 | 6374 ft | 256 kts | 152° |
| 2026-04-25 20:18 | 36.44804 | 25.45457 | 6040 ft | 244 kts | 151° |
| 2026-04-25 20:18 | 36.43282 | 25.46234 | 5815 ft | 232 kts | 151° |
| 2026-04-25 20:18 | 36.41776 | 25.47010 | 5495 ft | 235 kts | 151° |
| 2026-04-25 20:19 | 36.40261 | 25.47811 | 5150 ft | 233 kts | 146° |
| 2026-04-25 20:19 | 36.39091 | 25.49057 | 4857 ft | 216 kts | 119° |
| 2026-04-25 20:19 | 36.38308 | 25.50597 | 4840 ft | 203 kts | 116° |
| 2026-04-25 20:19 | 36.37553 | 25.52085 | 4759 ft | 202 kts | 117° |
| 2026-04-25 20:20 | 36.36810 | 25.53547 | 4500 ft | 205 kts | 116° |
| 2026-04-25 20:20 | 36.36042 | 25.55065 | 4142 ft | 205 kts | 116° |
| 2026-04-25 20:20 | 36.35292 | 25.56538 | 3953 ft | 199 kts | 116° |
| 2026-04-25 20:20 | 36.34560 | 25.57979 | 3738 ft | 196 kts | 116° |
| 2026-04-25 20:21 | 36.33842 | 25.59392 | 3567 ft | 191 kts | 116° |
| 2026-04-25 20:21 | 36.33137 | 25.60782 | 3367 ft | 188 kts | 116° |
| 2026-04-25 20:21 | 36.32438 | 25.62158 | 3200 ft | 185 kts | 116° |
| 2026-04-25 20:21 | 36.31642 | 25.63406 | 3159 ft | 191 kts | 136° |
| 2026-04-25 20:22 | 36.30286 | 25.63815 | 3056 ft | 213 kts | 182° |
| 2026-04-25 20:22 | 36.29372 | 25.63329 | 3025 ft | 219 kts | 214° |
| 2026-04-25 20:22 | 36.28290 | 25.61197 | 3033 ft | 223 kts | 252° |
| 2026-04-25 20:22 | 36.27918 | 25.59331 | 3049 ft | 223 kts | 266° |
| 2026-04-25 20:23 | 36.28151 | 25.57479 | 3023 ft | 208 kts | 299° |
| 2026-04-25 20:23 | 36.28954 | 25.56186 | 3164 ft | 176 kts | 327° |
| 2026-04-25 20:23 | 36.29814 | 25.55036 | 3353 ft | 187 kts | 317° |
| 2026-04-25 20:23 | 36.30637 | 25.53797 | 3123 ft | 176 kts | 317° |
| 2026-04-25 20:24 | 36.31431 | 25.52711 | 2383 ft | 170 kts | 323° |
| 2026-04-25 20:24 | 36.32280 | 25.51754 | 1614 ft | 159 kts | 331° |
| 2026-04-25 20:24 | 36.33153 | 25.51074 | 1060 ft | 140 kts | 341° |
| 2026-04-25 20:24 | 36.33978 | 25.50659 | 825 ft | 121 kts | 347° |
| 2026-04-25 20:25 | 36.34763 | 25.50376 | 669 ft | 115 kts | 347° |
| 2026-04-25 20:25 | 36.35523 | 25.50008 | 560 ft | 114 kts | 346° |
| 2026-04-25 20:25 | 36.36275 | 25.49670 | 518 ft | 115 kts | 341° |
| 2026-04-25 20:25 | 36.37026 | 25.49293 | 403 ft | 115 kts | 345° |
| 2026-04-25 20:26 | 36.37762 | 25.48936 | 298 ft | 114 kts | 342° |
| 2026-04-25 20:26 | 36.38512 | 25.48585 | 189 ft | 114 kts | 340° |
| 2026-04-25 20:26 | 36.39254 | 25.48231 | 65 ft | 110 kts | 342° |
| 2026-04-25 20:26 | 36.39796 | 25.47973 | 77 ft | 50 kts | 342° |
| 2026-04-25 20:27 | 36.40020 | 25.47868 | 86 ft | 21 kts | 338° |
| 2026-04-25 20:27 | 36.40149 | 25.47807 | 89 ft | 19 kts | 338° |
| 2026-04-25 20:27 | 36.40266 | 25.47751 | 94 ft | 16 kts | 338° |
| 2026-04-25 20:27 | 36.40315 | 25.47700 | 99 ft | 7 kts | 270° |
| 2026-04-25 20:28 | 36.40307 | 25.47658 | 103 ft | 3 kts | 250° |
| 2026-04-25 20:28 | 36.40299 | 25.47630 | 105 ft | 2 kts | 249° |
| 2026-04-25 20:28 | 36.40293 | 25.47611 | 107 ft | 1 kts | 250° |
| 2026-04-25 20:28 | 36.40286 | 25.47584 | 109 ft | 6 kts | 251° |
| 2026-04-25 20:29 | 36.40261 | 25.47515 | 114 ft | 11 kts | 227° |
| 2026-04-25 20:29 | 36.40179 | 25.47470 | 117 ft | 10 kts | 263° |
| 2026-04-25 20:29 | 36.40188 | 25.47452 | 118 ft | 0 kts | 338° |